My webcam more information My webcam


Thunder radar more information blitzortung!


Rain radar more information rain snow radar


Visit our other weather sites:

Template documentation
and downloads

And another site



Nearby METAR Reports

   
KAVP - Albrightsville, PA
Updated: Sep 26 2017 5:54 am
Clear  
Clear  
   Wind: East 4.6 mph
Wind: East 4.6 mph
Temperature: 66.2°F
Dew Point: 64.4°F
Humidity: 94%
Barometer: 30.07 inHg
Clouds: Clear
Visibility: 8 mi
Cloud details: Clear
KAVP 260954Z 10004KT 8SM CLR 19/18 A3007 RMK AO2 SLP171 T01890178
KIWA - Apache Junction, AZ
Updated: Sep 26 2017 6:35 am
Clear  
Clear  
   Wind: ESE 6.9 mph
Wind: ESE 6.9 mph
Temperature: 55.4°F
Dew Point: 21.2°F
Humidity: 26%
Barometer: 29.78 inHg
Clouds: Clear
Visibility: 10 mi
Cloud details: Clear
KIWA 261035Z AUTO 11006KT 10SM CLR 13/M06 A2978 RMK AO2
KPKB - Blue Rock, OH
Updated: Sep 26 2017 5:53 am
Clear  
Clear  
   Wind: Calm
Wind: Calm
Temperature: 62.6°F
Dew Point: 60.8°F
Humidity: 94%
Barometer: 30.05 inHg
Clouds: Clear
Visibility: 10 mi
Cloud details: Clear
KPKB 260953Z AUTO 00000KT 10SM CLR 17/16 A3005 RMK AO2 SLP167 T01670156
KHVN - Branford, CT
Updated: Sep 26 2017 5:53 am
Mist, Overcast  
Mist, Overcast  
   Wind: North 4.6 mph
Wind: North 4.6 mph
Temperature: 66.2°F
Dew Point: 66.2°F
Humidity: 100%
Barometer: 30.03 inHg
Clouds: Overcast
Visibility: 1 mi
Cloud details: Overcast 91 m
KHVN 260953Z 36004KT 1SM R02/P6000FT BR OVC003 19/19 A3003 RMK AO2 SLP169 T01940189
KPHX - Carefree, AZ
Updated: Sep 26 2017 5:51 am
Clear  
Clear  
   Wind: East 6.9 mph
Wind: East 6.9 mph
Temperature: 66.2°F
Dew Point: 33.8°F
Humidity: 30%
Barometer: 29.74 inHg
Clouds: Clear
Visibility: 10 mi
Cloud details: Clear
KPHX 260951Z 10006KT 10SM CLR 19/01 A2974 RMK AO2 SLP056 T01940011
 

Script developed by  Saratoga-weather.org Adapted for the template by  Weerstation Leuven

You find our weather info also at:

WeatherCloud

Weather Underground

Citizen Weather Observer Program (CWOP)

HAMweather, WeatherForYou, PWS Weather

Anything Weather